sensor_id;sensor_type;location;lat;lon;timestamp;P1;durP1;ratioP1;P2;durP2;ratioP2
6987;SDS011;3534;49.960;8.018;2023-02-28T00:02:08;2.13;;;1.93;;
6987;SDS011;3534;49.960;8.018;2023-02-28T00:04:34;2.10;;;1.90;;
6987;SDS011;3534;49.960;8.018;2023-02-28T00:07:01;1.80;;;1.70;;
6987;SDS011;3534;49.960;8.018;2023-02-28T00:09:29;2.00;;;1.53;;
6987;SDS011;3534;49.960;8.018;2023-02-28T00:11:56;2.93;;;2.50;;
6987;SDS011;3534;49.960;8.018;2023-02-28T00:14:23;2.43;;;2.17;;
6987;SDS011;3534;49.960;8.018;2023-02-28T00:16:49;2.30;;;2.10;;
6987;SDS011;3534;49.960;8.018;2023-02-28T00:19:16;2.07;;;1.97;;
6987;SDS011;3534;49.960;8.018;2023-02-28T00:21:43;3.43;;;2.10;;
6987;SDS011;3534;49.960;8.018;2023-02-28T00:24:09;2.17;;;1.97;;
6987;SDS011;3534;49.960;8.018;2023-02-28T00:26:37;4.23;;;2.20;;
6987;SDS011;3534;49.960;8.018;2023-02-28T00:29:04;2.27;;;2.07;;
6987;SDS011;3534;49.960;8.018;2023-02-28T00:31:31;3.30;;;2.50;;
6987;SDS011;3534;49.960;8.018;2023-02-28T00:33:57;5.30;;;2.00;;
6987;SDS011;3534;49.960;8.018;2023-02-28T00:36:24;4.00;;;2.37;;
6987;SDS011;3534;49.960;8.018;2023-02-28T00:38:51;2.27;;;2.10;;
6987;SDS011;3534;49.960;8.018;2023-02-28T00:41:18;3.00;;;2.63;;
6987;SDS011;3534;49.960;8.018;2023-02-28T00:43:46;5.13;;;2.43;;
6987;SDS011;3534;49.960;8.018;2023-02-28T00:46:12;2.83;;;2.10;;
6987;SDS011;3534;49.960;8.018;2023-02-28T00:48:39;4.90;;;2.30;;
6987;SDS011;3534;49.960;8.018;2023-02-28T00:51:06;2.60;;;2.30;;
6987;SDS011;3534;49.960;8.018;2023-02-28T00:53:32;2.63;;;2.43;;
6987;SDS011;3534;49.960;8.018;2023-02-28T00:55:59;3.80;;;2.40;;
6987;SDS011;3534;49.960;8.018;2023-02-28T00:58:26;2.73;;;2.50;;
6987;SDS011;3534;49.960;8.018;2023-02-28T01:00:54;4.30;;;2.20;;
6987;SDS011;3534;49.960;8.018;2023-02-28T01:03:21;3.77;;;2.27;;
6987;SDS011;3534;49.960;8.018;2023-02-28T01:05:48;2.27;;;2.07;;
6987;SDS011;3534;49.960;8.018;2023-02-28T01:08:15;7.60;;;2.13;;
6987;SDS011;3534;49.960;8.018;2023-02-28T01:10:42;5.47;;;2.80;;
6987;SDS011;3534;49.960;8.018;2023-02-28T01:13:09;5.17;;;2.23;;
6987;SDS011;3534;49.960;8.018;2023-02-28T01:15:36;3.53;;;2.23;;
6987;SDS011;3534;49.960;8.018;2023-02-28T01:18:05;3.00;;;2.27;;
6987;SDS011;3534;49.960;8.018;2023-02-28T01:20:32;4.00;;;2.20;;
6987;SDS011;3534;49.960;8.018;2023-02-28T01:22:58;2.50;;;2.30;;
6987;SDS011;3534;49.960;8.018;2023-02-28T01:25:25;3.00;;;2.10;;
6987;SDS011;3534;49.960;8.018;2023-02-28T01:27:52;2.70;;;2.10;;
6987;SDS011;3534;49.960;8.018;2023-02-28T01:30:18;4.33;;;1.97;;
6987;SDS011;3534;49.960;8.018;2023-02-28T01:32:45;3.93;;;2.10;;
6987;SDS011;3534;49.960;8.018;2023-02-28T01:35:13;2.20;;;1.87;;
6987;SDS011;3534;49.960;8.018;2023-02-28T01:37:40;1.90;;;1.80;;
6987;SDS011;3534;49.960;8.018;2023-02-28T01:40:07;2.57;;;1.90;;
6987;SDS011;3534;49.960;8.018;2023-02-28T01:42:35;1.87;;;1.73;;
6987;SDS011;3534;49.960;8.018;2023-02-28T01:45:07;2.77;;;2.50;;
6987;SDS011;3534;49.960;8.018;2023-02-28T01:47:46;2.73;;;2.10;;
6987;SDS011;3534;49.960;8.018;2023-02-28T01:50:18;4.77;;;2.77;;
6987;SDS011;3534;49.960;8.018;2023-02-28T01:52:47;2.17;;;1.97;;
6987;SDS011;3534;49.960;8.018;2023-02-28T01:55:15;2.70;;;2.40;;
6987;SDS011;3534;49.960;8.018;2023-02-28T01:57:45;2.30;;;2.10;;
6987;SDS011;3534;49.960;8.018;2023-02-28T02:00:16;11.40;;;2.73;;
6987;SDS011;3534;49.960;8.018;2023-02-28T02:02:45;3.63;;;2.60;;
6987;SDS011;3534;49.960;8.018;2023-02-28T02:05:14;3.23;;;2.00;;
6987;SDS011;3534;49.960;8.018;2023-02-28T02:07:44;2.00;;;1.90;;
6987;SDS011;3534;49.960;8.018;2023-02-28T02:10:13;2.47;;;2.27;;
6987;SDS011;3534;49.960;8.018;2023-02-28T02:12:49;2.97;;;2.60;;
6987;SDS011;3534;49.960;8.018;2023-02-28T02:15:30;3.43;;;2.13;;
6987;SDS011;3534;49.960;8.018;2023-02-28T02:18:01;2.50;;;2.30;;
6987;SDS011;3534;49.960;8.018;2023-02-28T02:20:39;2.60;;;2.40;;
6987;SDS011;3534;49.960;8.018;2023-02-28T02:23:30;2.60;;;2.40;;
6987;SDS011;3534;49.960;8.018;2023-02-28T02:26:27;2.50;;;2.30;;
6987;SDS011;3534;49.960;8.018;2023-02-28T02:29:20;2.67;;;2.47;;
6987;SDS011;3534;49.960;8.018;2023-02-28T02:35:10;3.23;;;2.90;;
6987;SDS011;3534;49.960;8.018;2023-02-28T02:37:41;3.30;;;3.00;;
6987;SDS011;3534;49.960;8.018;2023-02-28T02:40:15;5.13;;;3.03;;
6987;SDS011;3534;49.960;8.018;2023-02-28T02:42:47;3.70;;;2.70;;
6987;SDS011;3534;49.960;8.018;2023-02-28T02:45:19;4.60;;;2.80;;
6987;SDS011;3534;49.960;8.018;2023-02-28T02:47:51;3.63;;;3.03;;
6987;SDS011;3534;49.960;8.018;2023-02-28T02:50:21;3.53;;;2.80;;
6987;SDS011;3534;49.960;8.018;2023-02-28T02:52:51;7.43;;;3.90;;
6987;SDS011;3534;49.960;8.018;2023-02-28T02:55:22;4.13;;;2.60;;
6987;SDS011;3534;49.960;8.018;2023-02-28T02:57:50;6.33;;;3.17;;
6987;SDS011;3534;49.960;8.018;2023-02-28T03:00:22;3.43;;;3.07;;
6987;SDS011;3534;49.960;8.018;2023-02-28T03:02:52;3.13;;;2.83;;
6987;SDS011;3534;49.960;8.018;2023-02-28T03:05:23;4.90;;;2.80;;
6987;SDS011;3534;49.960;8.018;2023-02-28T03:07:52;3.37;;;3.17;;
6987;SDS011;3534;49.960;8.018;2023-02-28T03:10:27;3.33;;;2.83;;
6987;SDS011;3534;49.960;8.018;2023-02-28T03:12:59;3.40;;;2.90;;
6987;SDS011;3534;49.960;8.018;2023-02-28T03:15:33;3.33;;;3.00;;
6987;SDS011;3534;49.960;8.018;2023-02-28T03:18:07;3.37;;;2.83;;
6987;SDS011;3534;49.960;8.018;2023-02-28T03:20:44;4.63;;;3.20;;
6987;SDS011;3534;49.960;8.018;2023-02-28T03:23:23;4.07;;;3.40;;
6987;SDS011;3534;49.960;8.018;2023-02-28T03:25:56;4.87;;;3.77;;
6987;SDS011;3534;49.960;8.018;2023-02-28T03:28:30;2.70;;;2.50;;
6987;SDS011;3534;49.960;8.018;2023-02-28T03:31:03;3.97;;;3.00;;
6987;SDS011;3534;49.960;8.018;2023-02-28T03:33:38;2.97;;;2.77;;
6987;SDS011;3534;49.960;8.018;2023-02-28T03:36:10;3.50;;;3.00;;
6987;SDS011;3534;49.960;8.018;2023-02-28T03:38:41;5.20;;;2.63;;
6987;SDS011;3534;49.960;8.018;2023-02-28T03:41:12;4.57;;;3.10;;
6987;SDS011;3534;49.960;8.018;2023-02-28T03:43:43;2.70;;;2.50;;
6987;SDS011;3534;49.960;8.018;2023-02-28T03:46:14;7.53;;;2.60;;
6987;SDS011;3534;49.960;8.018;2023-02-28T03:48:47;3.97;;;3.07;;
6987;SDS011;3534;49.960;8.018;2023-02-28T03:51:21;2.50;;;2.30;;
6987;SDS011;3534;49.960;8.018;2023-02-28T03:53:52;5.07;;;2.60;;
6987;SDS011;3534;49.960;8.018;2023-02-28T03:56:22;3.13;;;2.87;;
6987;SDS011;3534;49.960;8.018;2023-02-28T03:58:55;3.47;;;2.93;;
6987;SDS011;3534;49.960;8.018;2023-02-28T04:01:28;4.37;;;2.97;;
6987;SDS011;3534;49.960;8.018;2023-02-28T04:03:59;7.57;;;2.70;;
6987;SDS011;3534;49.960;8.018;2023-02-28T04:06:29;2.80;;;2.60;;
6987;SDS011;3534;49.960;8.018;2023-02-28T04:08:58;2.60;;;2.40;;
6987;SDS011;3534;49.960;8.018;2023-02-28T04:11:26;2.77;;;2.57;;
6987;SDS011;3534;49.960;8.018;2023-02-28T04:13:57;2.90;;;2.60;;
6987;SDS011;3534;49.960;8.018;2023-02-28T04:16:23;2.90;;;2.60;;
6987;SDS011;3534;49.960;8.018;2023-02-28T04:18:50;2.70;;;2.50;;
6987;SDS011;3534;49.960;8.018;2023-02-28T04:21:17;2.50;;;2.30;;
6987;SDS011;3534;49.960;8.018;2023-02-28T04:23:47;3.10;;;2.80;;
6987;SDS011;3534;49.960;8.018;2023-02-28T04:26:14;8.80;;;3.00;;
6987;SDS011;3534;49.960;8.018;2023-02-28T04:28:40;3.70;;;2.43;;
6987;SDS011;3534;49.960;8.018;2023-02-28T04:31:07;4.73;;;2.80;;
6987;SDS011;3534;49.960;8.018;2023-02-28T04:33:36;3.20;;;2.90;;
6987;SDS011;3534;49.960;8.018;2023-02-28T04:36:04;2.80;;;2.30;;
6987;SDS011;3534;49.960;8.018;2023-02-28T04:38:32;3.97;;;2.40;;
6987;SDS011;3534;49.960;8.018;2023-02-28T04:41:01;2.43;;;2.23;;
6987;SDS011;3534;49.960;8.018;2023-02-28T04:43:29;2.50;;;2.30;;
6987;SDS011;3534;49.960;8.018;2023-02-28T04:45:56;2.00;;;1.90;;
6987;SDS011;3534;49.960;8.018;2023-02-28T04:48:24;2.77;;;2.57;;
6987;SDS011;3534;49.960;8.018;2023-02-28T04:50:53;3.10;;;2.20;;
6987;SDS011;3534;49.960;8.018;2023-02-28T04:53:21;2.80;;;2.50;;
6987;SDS011;3534;49.960;8.018;2023-02-28T04:55:47;3.53;;;3.00;;
6987;SDS011;3534;49.960;8.018;2023-02-28T04:58:15;3.20;;;2.67;;
6987;SDS011;3534;49.960;8.018;2023-02-28T05:00:42;5.00;;;2.60;;
6987;SDS011;3534;49.960;8.018;2023-02-28T05:03:08;2.50;;;2.30;;
6987;SDS011;3534;49.960;8.018;2023-02-28T05:05:35;3.10;;;2.37;;
6987;SDS011;3534;49.960;8.018;2023-02-28T05:08:02;3.03;;;2.73;;
6987;SDS011;3534;49.960;8.018;2023-02-28T05:10:30;2.20;;;2.10;;
6987;SDS011;3534;49.960;8.018;2023-02-28T05:12:57;4.50;;;2.87;;
6987;SDS011;3534;49.960;8.018;2023-02-28T05:15:24;2.77;;;2.57;;
6987;SDS011;3534;49.960;8.018;2023-02-28T05:17:51;3.33;;;2.43;;
6987;SDS011;3534;49.960;8.018;2023-02-28T05:20:18;6.83;;;3.10;;
6987;SDS011;3534;49.960;8.018;2023-02-28T05:22:45;3.60;;;2.70;;
6987;SDS011;3534;49.960;8.018;2023-02-28T05:25:22;3.03;;;2.83;;
6987;SDS011;3534;49.960;8.018;2023-02-28T05:27:49;3.17;;;2.87;;
6987;SDS011;3534;49.960;8.018;2023-02-28T05:30:15;2.80;;;2.60;;
6987;SDS011;3534;49.960;8.018;2023-02-28T05:32:42;6.13;;;2.90;;
6987;SDS011;3534;49.960;8.018;2023-02-28T05:35:09;3.20;;;2.90;;
6987;SDS011;3534;49.960;8.018;2023-02-28T05:37:37;3.10;;;2.90;;
6987;SDS011;3534;49.960;8.018;2023-02-28T05:40:06;6.40;;;3.10;;
6987;SDS011;3534;49.960;8.018;2023-02-28T05:42:36;3.23;;;2.93;;
6987;SDS011;3534;49.960;8.018;2023-02-28T05:45:03;4.00;;;2.90;;
6987;SDS011;3534;49.960;8.018;2023-02-28T05:47:32;2.70;;;2.50;;
6987;SDS011;3534;49.960;8.018;2023-02-28T05:49:59;4.27;;;3.13;;
6987;SDS011;3534;49.960;8.018;2023-02-28T05:52:25;3.37;;;2.87;;
6987;SDS011;3534;49.960;8.018;2023-02-28T05:54:52;3.60;;;3.30;;
6987;SDS011;3534;49.960;8.018;2023-02-28T05:57:19;5.03;;;3.07;;
6987;SDS011;3534;49.960;8.018;2023-02-28T05:59:47;3.70;;;3.40;;
6987;SDS011;3534;49.960;8.018;2023-02-28T06:02:14;5.13;;;3.73;;
6987;SDS011;3534;49.960;8.018;2023-02-28T06:04:42;4.33;;;3.27;;
6987;SDS011;3534;49.960;8.018;2023-02-28T06:07:10;2.80;;;2.60;;
6987;SDS011;3534;49.960;8.018;2023-02-28T06:09:37;3.53;;;3.23;;
6987;SDS011;3534;49.960;8.018;2023-02-28T06:12:05;3.07;;;2.77;;
6987;SDS011;3534;49.960;8.018;2023-02-28T06:14:34;4.63;;;3.70;;
6987;SDS011;3534;49.960;8.018;2023-02-28T06:17:02;3.53;;;2.87;;
6987;SDS011;3534;49.960;8.018;2023-02-28T06:19:29;3.00;;;2.40;;
6987;SDS011;3534;49.960;8.018;2023-02-28T06:21:56;3.60;;;2.70;;
6987;SDS011;3534;49.960;8.018;2023-02-28T06:24:24;6.10;;;3.20;;
6987;SDS011;3534;49.960;8.018;2023-02-28T06:26:52;7.30;;;2.50;;
6987;SDS011;3534;49.960;8.018;2023-02-28T06:29:19;2.67;;;2.47;;
6987;SDS011;3534;49.960;8.018;2023-02-28T06:31:46;4.70;;;3.23;;
6987;SDS011;3534;49.960;8.018;2023-02-28T06:34:14;3.73;;;2.80;;
6987;SDS011;3534;49.960;8.018;2023-02-28T06:36:41;4.67;;;2.73;;
6987;SDS011;3534;49.960;8.018;2023-02-28T06:39:09;7.53;;;2.50;;
6987;SDS011;3534;49.960;8.018;2023-02-28T06:41:35;3.93;;;2.80;;
6987;SDS011;3534;49.960;8.018;2023-02-28T06:44:03;4.23;;;3.03;;
6987;SDS011;3534;49.960;8.018;2023-02-28T06:46:31;8.43;;;3.50;;
6987;SDS011;3534;49.960;8.018;2023-02-28T06:48:57;9.43;;;2.90;;
6987;SDS011;3534;49.960;8.018;2023-02-28T06:51:25;3.43;;;2.73;;
6987;SDS011;3534;49.960;8.018;2023-02-28T06:53:52;5.07;;;3.10;;
6987;SDS011;3534;49.960;8.018;2023-02-28T06:56:19;3.43;;;3.00;;
6987;SDS011;3534;49.960;8.018;2023-02-28T06:58:46;3.70;;;2.80;;
6987;SDS011;3534;49.960;8.018;2023-02-28T07:01:14;2.70;;;2.50;;
6987;SDS011;3534;49.960;8.018;2023-02-28T07:03:40;5.63;;;3.33;;
6987;SDS011;3534;49.960;8.018;2023-02-28T07:06:07;4.30;;;3.00;;
6987;SDS011;3534;49.960;8.018;2023-02-28T07:08:35;4.07;;;2.53;;
6987;SDS011;3534;49.960;8.018;2023-02-28T07:11:02;2.87;;;2.60;;
6987;SDS011;3534;49.960;8.018;2023-02-28T07:13:30;8.93;;;3.10;;
6987;SDS011;3534;49.960;8.018;2023-02-28T07:15:57;4.23;;;3.10;;
6987;SDS011;3534;49.960;8.018;2023-02-28T07:18:25;3.50;;;2.70;;
6987;SDS011;3534;49.960;8.018;2023-02-28T07:20:52;6.70;;;2.80;;
6987;SDS011;3534;49.960;8.018;2023-02-28T07:23:20;7.57;;;2.90;;
6987;SDS011;3534;49.960;8.018;2023-02-28T07:25:49;4.40;;;2.83;;
6987;SDS011;3534;49.960;8.018;2023-02-28T07:28:17;6.70;;;2.80;;
6987;SDS011;3534;49.960;8.018;2023-02-28T07:30:44;7.47;;;3.27;;
6987;SDS011;3534;49.960;8.018;2023-02-28T07:33:11;3.67;;;3.10;;
6987;SDS011;3534;49.960;8.018;2023-02-28T07:35:38;12.60;;;3.00;;
6987;SDS011;3534;49.960;8.018;2023-02-28T07:38:04;12.10;;;3.17;;
6987;SDS011;3534;49.960;8.018;2023-02-28T07:40:32;7.20;;;3.07;;
6987;SDS011;3534;49.960;8.018;2023-02-28T07:43:01;3.23;;;2.57;;
6987;SDS011;3534;49.960;8.018;2023-02-28T07:45:28;2.77;;;2.57;;
6987;SDS011;3534;49.960;8.018;2023-02-28T07:47:56;13.00;;;3.30;;
6987;SDS011;3534;49.960;8.018;2023-02-28T07:50:23;5.40;;;2.87;;
6987;SDS011;3534;49.960;8.018;2023-02-28T07:52:50;3.27;;;2.43;;
6987;SDS011;3534;49.960;8.018;2023-02-28T07:55:17;4.60;;;4.20;;
6987;SDS011;3534;49.960;8.018;2023-02-28T07:57:43;8.17;;;7.37;;
6987;SDS011;3534;49.960;8.018;2023-02-28T08:00:12;3.83;;;2.50;;
6987;SDS011;3534;49.960;8.018;2023-02-28T08:02:39;3.80;;;2.53;;
6987;SDS011;3534;49.960;8.018;2023-02-28T08:05:06;2.60;;;2.07;;
6987;SDS011;3534;49.960;8.018;2023-02-28T08:07:33;11.60;;;2.57;;
6987;SDS011;3534;49.960;8.018;2023-02-28T08:10:00;4.30;;;2.30;;
6987;SDS011;3534;49.960;8.018;2023-02-28T08:12:27;2.43;;;2.10;;
6987;SDS011;3534;49.960;8.018;2023-02-28T08:14:53;2.20;;;2.00;;
6987;SDS011;3534;49.960;8.018;2023-02-28T08:17:21;2.83;;;2.53;;
6987;SDS011;3534;49.960;8.018;2023-02-28T08:19:48;5.50;;;2.40;;
6987;SDS011;3534;49.960;8.018;2023-02-28T08:22:15;8.10;;;2.47;;
6987;SDS011;3534;49.960;8.018;2023-02-28T08:24:42;6.20;;;3.40;;
6987;SDS011;3534;49.960;8.018;2023-02-28T08:27:09;2.73;;;2.17;;
6987;SDS011;3534;49.960;8.018;2023-02-28T08:29:36;5.07;;;3.10;;
6987;SDS011;3534;49.960;8.018;2023-02-28T08:32:03;7.23;;;2.73;;
6987;SDS011;3534;49.960;8.018;2023-02-28T08:34:32;4.47;;;2.57;;
6987;SDS011;3534;49.960;8.018;2023-02-28T08:36:59;3.17;;;2.70;;
6987;SDS011;3534;49.960;8.018;2023-02-28T08:39:25;5.73;;;2.93;;
6987;SDS011;3534;49.960;8.018;2023-02-28T08:41:52;3.23;;;2.93;;
6987;SDS011;3534;49.960;8.018;2023-02-28T08:44:19;2.90;;;2.70;;
6987;SDS011;3534;49.960;8.018;2023-02-28T08:46:46;2.73;;;2.53;;
6987;SDS011;3534;49.960;8.018;2023-02-28T08:49:12;3.33;;;2.77;;
6987;SDS011;3534;49.960;8.018;2023-02-28T08:51:40;3.83;;;3.00;;
6987;SDS011;3534;49.960;8.018;2023-02-28T08:54:07;6.27;;;3.40;;
6987;SDS011;3534;49.960;8.018;2023-02-28T08:56:35;6.27;;;3.80;;
6987;SDS011;3534;49.960;8.018;2023-02-28T08:59:02;5.83;;;3.70;;
6987;SDS011;3534;49.960;8.018;2023-02-28T09:01:29;4.47;;;3.30;;
6987;SDS011;3534;49.960;8.018;2023-02-28T09:03:57;5.47;;;3.00;;
6987;SDS011;3534;49.960;8.018;2023-02-28T09:06:25;3.37;;;3.03;;
6987;SDS011;3534;49.960;8.018;2023-02-28T09:08:55;4.20;;;3.53;;
6987;SDS011;3534;49.960;8.018;2023-02-28T09:11:24;3.43;;;3.03;;
6987;SDS011;3534;49.960;8.018;2023-02-28T09:13:51;3.20;;;2.90;;
6987;SDS011;3534;49.960;8.018;2023-02-28T09:16:17;5.93;;;2.90;;
6987;SDS011;3534;49.960;8.018;2023-02-28T09:18:45;3.63;;;3.33;;
6987;SDS011;3534;49.960;8.018;2023-02-28T09:21:12;6.70;;;3.50;;
6987;SDS011;3534;49.960;8.018;2023-02-28T09:23:40;3.73;;;3.30;;
6987;SDS011;3534;49.960;8.018;2023-02-28T09:26:12;4.37;;;3.57;;
6987;SDS011;3534;49.960;8.018;2023-02-28T09:28:40;6.17;;;3.60;;
6987;SDS011;3534;49.960;8.018;2023-02-28T09:31:10;5.60;;;4.20;;
6987;SDS011;3534;49.960;8.018;2023-02-28T09:33:38;12.00;;;3.77;;
6987;SDS011;3534;49.960;8.018;2023-02-28T09:36:05;12.20;;;3.90;;
6987;SDS011;3534;49.960;8.018;2023-02-28T09:38:32;5.63;;;3.60;;
6987;SDS011;3534;49.960;8.018;2023-02-28T09:41:00;4.10;;;3.43;;
6987;SDS011;3534;49.960;8.018;2023-02-28T09:43:31;5.20;;;3.20;;
6987;SDS011;3534;49.960;8.018;2023-02-28T09:46:02;11.53;;;3.10;;
6987;SDS011;3534;49.960;8.018;2023-02-28T09:48:36;6.33;;;3.50;;
6987;SDS011;3534;49.960;8.018;2023-02-28T09:51:12;5.10;;;3.73;;
6987;SDS011;3534;49.960;8.018;2023-02-28T09:53:49;4.80;;;3.57;;
6987;SDS011;3534;49.960;8.018;2023-02-28T09:56:18;7.57;;;3.50;;
6987;SDS011;3534;49.960;8.018;2023-02-28T09:58:53;4.07;;;3.47;;
6987;SDS011;3534;49.960;8.018;2023-02-28T10:01:24;3.53;;;2.90;;
6987;SDS011;3534;49.960;8.018;2023-02-28T10:03:57;6.87;;;3.90;;
6987;SDS011;3534;49.960;8.018;2023-02-28T10:06:30;3.50;;;3.20;;
6987;SDS011;3534;49.960;8.018;2023-02-28T10:09:03;7.10;;;3.93;;
6987;SDS011;3534;49.960;8.018;2023-02-28T10:11:34;6.40;;;3.47;;
6987;SDS011;3534;49.960;8.018;2023-02-28T10:14:05;3.60;;;3.03;;
6987;SDS011;3534;49.960;8.018;2023-02-28T10:16:40;7.10;;;4.07;;
6987;SDS011;3534;49.960;8.018;2023-02-28T10:19:13;5.00;;;4.00;;
6987;SDS011;3534;49.960;8.018;2023-02-28T10:21:46;6.50;;;4.00;;
6987;SDS011;3534;49.960;8.018;2023-02-28T10:24:19;5.10;;;3.13;;
6987;SDS011;3534;49.960;8.018;2023-02-28T10:26:48;4.13;;;3.70;;
6987;SDS011;3534;49.960;8.018;2023-02-28T10:29:23;4.57;;;3.43;;
6987;SDS011;3534;49.960;8.018;2023-02-28T10:31:50;6.90;;;3.67;;
6987;SDS011;3534;49.960;8.018;2023-02-28T10:34:17;3.40;;;3.10;;
6987;SDS011;3534;49.960;8.018;2023-02-28T10:36:43;4.53;;;3.83;;
6987;SDS011;3534;49.960;8.018;2023-02-28T10:42:03;3.33;;;2.97;;
6987;SDS011;3534;49.960;8.018;2023-02-28T10:44:31;3.97;;;3.33;;
6987;SDS011;3534;49.960;8.018;2023-02-28T10:46:58;5.20;;;3.10;;
6987;SDS011;3534;49.960;8.018;2023-02-28T10:49:25;6.37;;;3.57;;
6987;SDS011;3534;49.960;8.018;2023-02-28T10:51:54;10.20;;;3.83;;
6987;SDS011;3534;49.960;8.018;2023-02-28T10:54:23;5.23;;;3.23;;
6987;SDS011;3534;49.960;8.018;2023-02-28T10:57:06;19.87;;;4.17;;
6987;SDS011;3534;49.960;8.018;2023-02-28T10:59:36;3.43;;;2.90;;
6987;SDS011;3534;49.960;8.018;2023-02-28T11:02:07;4.27;;;3.07;;
6987;SDS011;3534;49.960;8.018;2023-02-28T11:05:02;7.50;;;3.70;;
6987;SDS011;3534;49.960;8.018;2023-02-28T11:07:50;6.67;;;3.60;;
6987;SDS011;3534;49.960;8.018;2023-02-28T11:10:18;4.00;;;3.60;;
6987;SDS011;3534;49.960;8.018;2023-02-28T11:12:47;6.33;;;3.37;;
6987;SDS011;3534;49.960;8.018;2023-02-28T11:15:21;5.33;;;3.27;;
6987;SDS011;3534;49.960;8.018;2023-02-28T11:17:55;5.87;;;3.87;;
6987;SDS011;3534;49.960;8.018;2023-02-28T11:20:24;3.70;;;3.30;;
6987;SDS011;3534;49.960;8.018;2023-02-28T11:22:53;3.93;;;3.37;;
6987;SDS011;3534;49.960;8.018;2023-02-28T11:25:23;5.87;;;3.50;;
6987;SDS011;3534;49.960;8.018;2023-02-28T11:27:53;6.33;;;3.00;;
6987;SDS011;3534;49.960;8.018;2023-02-28T11:30:25;7.30;;;3.50;;
6987;SDS011;3534;49.960;8.018;2023-02-28T11:32:55;5.27;;;3.70;;
6987;SDS011;3534;49.960;8.018;2023-02-28T11:35:23;4.07;;;3.60;;
6987;SDS011;3534;49.960;8.018;2023-02-28T11:37:52;5.70;;;3.87;;
6987;SDS011;3534;49.960;8.018;2023-02-28T11:40:21;14.00;;;4.87;;
6987;SDS011;3534;49.960;8.018;2023-02-28T11:42:57;6.83;;;4.13;;
6987;SDS011;3534;49.960;8.018;2023-02-28T11:45:36;5.00;;;4.13;;
6987;SDS011;3534;49.960;8.018;2023-02-28T11:48:22;5.03;;;4.37;;
6987;SDS011;3534;49.960;8.018;2023-02-28T11:50:58;7.50;;;4.67;;
6987;SDS011;3534;49.960;8.018;2023-02-28T11:56:36;5.27;;;3.80;;
6987;SDS011;3534;49.960;8.018;2023-02-28T11:59:12;5.27;;;3.60;;
6987;SDS011;3534;49.960;8.018;2023-02-28T12:02:05;5.53;;;3.80;;
6987;SDS011;3534;49.960;8.018;2023-02-28T12:04:52;6.03;;;4.30;;
6987;SDS011;3534;49.960;8.018;2023-02-28T12:07:26;5.33;;;3.80;;
6987;SDS011;3534;49.960;8.018;2023-02-28T12:09:58;5.30;;;4.30;;
6987;SDS011;3534;49.960;8.018;2023-02-28T12:12:34;5.37;;;4.13;;
6987;SDS011;3534;49.960;8.018;2023-02-28T12:18:24;5.70;;;4.40;;
6987;SDS011;3534;49.960;8.018;2023-02-28T12:21:04;7.27;;;3.90;;
6987;SDS011;3534;49.960;8.018;2023-02-28T12:23:42;7.40;;;4.83;;
6987;SDS011;3534;49.960;8.018;2023-02-28T12:26:23;4.23;;;3.57;;
6987;SDS011;3534;49.960;8.018;2023-02-28T12:29:02;4.63;;;3.90;;
6987;SDS011;3534;49.960;8.018;2023-02-28T12:31:36;4.80;;;4.20;;
6987;SDS011;3534;49.960;8.018;2023-02-28T12:34:10;4.97;;;4.30;;
6987;SDS011;3534;49.960;8.018;2023-02-28T12:36:40;5.57;;;4.57;;
6987;SDS011;3534;49.960;8.018;2023-02-28T12:39:10;6.23;;;4.10;;
6987;SDS011;3534;49.960;8.018;2023-02-28T12:41:42;6.27;;;4.00;;
6987;SDS011;3534;49.960;8.018;2023-02-28T12:44:12;6.53;;;4.80;;
6987;SDS011;3534;49.960;8.018;2023-02-28T12:46:47;5.67;;;4.57;;
6987;SDS011;3534;49.960;8.018;2023-02-28T12:49:17;6.10;;;4.87;;
6987;SDS011;3534;49.960;8.018;2023-02-28T12:51:49;4.90;;;4.40;;
6987;SDS011;3534;49.960;8.018;2023-02-28T12:54:18;5.57;;;4.40;;
6987;SDS011;3534;49.960;8.018;2023-02-28T12:56:52;4.77;;;4.27;;
6987;SDS011;3534;49.960;8.018;2023-02-28T12:59:30;5.60;;;4.17;;
6987;SDS011;3534;49.960;8.018;2023-02-28T13:02:09;6.63;;;3.93;;
6987;SDS011;3534;49.960;8.018;2023-02-28T13:08:03;4.87;;;4.27;;
6987;SDS011;3534;49.960;8.018;2023-02-28T13:10:48;5.37;;;4.20;;
6987;SDS011;3534;49.960;8.018;2023-02-28T13:13:20;6.90;;;4.50;;
6987;SDS011;3534;49.960;8.018;2023-02-28T13:18:39;4.83;;;4.30;;
6987;SDS011;3534;49.960;8.018;2023-02-28T13:21:09;5.23;;;4.73;;
6987;SDS011;3534;49.960;8.018;2023-02-28T13:24:00;13.33;;;5.10;;
6987;SDS011;3534;49.960;8.018;2023-02-28T13:29:34;11.93;;;6.60;;
6987;SDS011;3534;49.960;8.018;2023-02-28T13:38:12;5.73;;;5.00;;
6987;SDS011;3534;49.960;8.018;2023-02-28T13:40:44;6.30;;;5.20;;
6987;SDS011;3534;49.960;8.018;2023-02-28T13:43:12;8.57;;;4.90;;
6987;SDS011;3534;49.960;8.018;2023-02-28T13:48:34;5.10;;;4.60;;
6987;SDS011;3534;49.960;8.018;2023-02-28T13:51:00;10.93;;;5.60;;
6987;SDS011;3534;49.960;8.018;2023-02-28T13:54:13;7.17;;;5.13;;
6987;SDS011;3534;49.960;8.018;2023-02-28T13:56:52;6.30;;;4.90;;
6987;SDS011;3534;49.960;8.018;2023-02-28T13:59:32;8.80;;;5.90;;
6987;SDS011;3534;49.960;8.018;2023-02-28T14:02:28;6.03;;;5.30;;
6987;SDS011;3534;49.960;8.018;2023-02-28T14:05:11;9.47;;;5.60;;
6987;SDS011;3534;49.960;8.018;2023-02-28T14:07:42;8.03;;;4.70;;
6987;SDS011;3534;49.960;8.018;2023-02-28T14:10:19;6.80;;;5.33;;
6987;SDS011;3534;49.960;8.018;2023-02-28T14:12:53;8.40;;;5.00;;
6987;SDS011;3534;49.960;8.018;2023-02-28T14:18:15;17.43;;;5.57;;
6987;SDS011;3534;49.960;8.018;2023-02-28T14:20:46;7.33;;;5.17;;
6987;SDS011;3534;49.960;8.018;2023-02-28T14:23:15;7.47;;;4.93;;
6987;SDS011;3534;49.960;8.018;2023-02-28T14:25:51;8.90;;;4.60;;
6987;SDS011;3534;49.960;8.018;2023-02-28T14:28:33;8.43;;;5.63;;
6987;SDS011;3534;49.960;8.018;2023-02-28T14:31:10;9.13;;;5.50;;
6987;SDS011;3534;49.960;8.018;2023-02-28T14:33:47;7.70;;;5.30;;
6987;SDS011;3534;49.960;8.018;2023-02-28T14:36:26;8.57;;;5.27;;
6987;SDS011;3534;49.960;8.018;2023-02-28T14:38:59;6.00;;;5.40;;
6987;SDS011;3534;49.960;8.018;2023-02-28T14:41:31;9.00;;;5.27;;
6987;SDS011;3534;49.960;8.018;2023-02-28T14:44:12;9.37;;;4.87;;
6987;SDS011;3534;49.960;8.018;2023-02-28T14:46:41;14.50;;;5.60;;
6987;SDS011;3534;49.960;8.018;2023-02-28T14:49:12;7.83;;;5.30;;
6987;SDS011;3534;49.960;8.018;2023-02-28T14:51:43;6.50;;;4.87;;
6987;SDS011;3534;49.960;8.018;2023-02-28T14:54:12;14.80;;;5.10;;
6987;SDS011;3534;49.960;8.018;2023-02-28T14:56:41;7.07;;;5.03;;
6987;SDS011;3534;49.960;8.018;2023-02-28T14:59:22;6.03;;;5.07;;
6987;SDS011;3534;49.960;8.018;2023-02-28T15:01:51;5.83;;;4.67;;
6987;SDS011;3534;49.960;8.018;2023-02-28T15:04:21;6.13;;;4.97;;
6987;SDS011;3534;49.960;8.018;2023-02-28T15:07:09;9.93;;;5.53;;
6987;SDS011;3534;49.960;8.018;2023-02-28T15:09:36;6.70;;;5.03;;
6987;SDS011;3534;49.960;8.018;2023-02-28T15:12:03;5.87;;;5.17;;
6987;SDS011;3534;49.960;8.018;2023-02-28T15:14:31;7.30;;;5.10;;
6987;SDS011;3534;49.960;8.018;2023-02-28T15:16:59;6.00;;;4.97;;
6987;SDS011;3534;49.960;8.018;2023-02-28T15:19:31;5.67;;;5.10;;
6987;SDS011;3534;49.960;8.018;2023-02-28T15:22:01;5.43;;;4.70;;
6987;SDS011;3534;49.960;8.018;2023-02-28T15:24:35;8.83;;;4.73;;
6987;SDS011;3534;49.960;8.018;2023-02-28T15:27:05;6.30;;;5.10;;
6987;SDS011;3534;49.960;8.018;2023-02-28T15:29:43;6.37;;;5.20;;
6987;SDS011;3534;49.960;8.018;2023-02-28T15:32:21;8.13;;;5.53;;
6987;SDS011;3534;49.960;8.018;2023-02-28T15:34:51;10.17;;;5.57;;
6987;SDS011;3534;49.960;8.018;2023-02-28T15:37:29;4.83;;;4.33;;
6987;SDS011;3534;49.960;8.018;2023-02-28T15:40:11;5.10;;;4.60;;
6987;SDS011;3534;49.960;8.018;2023-02-28T15:42:40;5.43;;;4.90;;
6987;SDS011;3534;49.960;8.018;2023-02-28T15:47:55;6.57;;;5.20;;
6987;SDS011;3534;49.960;8.018;2023-02-28T15:50:22;6.20;;;5.33;;
6987;SDS011;3534;49.960;8.018;2023-02-28T15:52:49;5.40;;;4.73;;
6987;SDS011;3534;49.960;8.018;2023-02-28T15:55:17;8.73;;;5.40;;
6987;SDS011;3534;49.960;8.018;2023-02-28T15:57:45;6.07;;;4.63;;
6987;SDS011;3534;49.960;8.018;2023-02-28T16:00:16;5.90;;;5.30;;
6987;SDS011;3534;49.960;8.018;2023-02-28T16:02:48;8.87;;;5.87;;
6987;SDS011;3534;49.960;8.018;2023-02-28T16:05:20;5.80;;;5.20;;
6987;SDS011;3534;49.960;8.018;2023-02-28T16:07:53;10.73;;;5.13;;
6987;SDS011;3534;49.960;8.018;2023-02-28T16:10:21;4.90;;;4.33;;
6987;SDS011;3534;49.960;8.018;2023-02-28T16:12:52;8.07;;;5.60;;